sensor_id;sensor_type;location;lat;lon;timestamp;P1;durP1;ratioP1;P2;durP2;ratioP2
20000;SDS011;10161;41.188;-8.642;2022-07-17T00:02:21;10.50;;;7.17;;
20000;SDS011;10161;41.188;-8.642;2022-07-17T00:04:49;7.20;;;6.47;;
20000;SDS011;10161;41.188;-8.642;2022-07-17T00:07:16;8.73;;;6.77;;
20000;SDS011;10161;41.188;-8.642;2022-07-17T00:09:44;7.50;;;5.90;;
20000;SDS011;10161;41.188;-8.642;2022-07-17T00:12:12;10.20;;;7.27;;
20000;SDS011;10161;41.188;-8.642;2022-07-17T00:14:38;9.93;;;6.57;;
20000;SDS011;10161;41.188;-8.642;2022-07-17T00:17:05;8.20;;;7.07;;
20000;SDS011;10161;41.188;-8.642;2022-07-17T00:19:32;10.93;;;7.03;;
20000;SDS011;10161;41.188;-8.642;2022-07-17T00:22:02;11.73;;;7.07;;
20000;SDS011;10161;41.188;-8.642;2022-07-17T00:24:29;9.43;;;6.90;;
20000;SDS011;10161;41.188;-8.642;2022-07-17T00:26:56;6.53;;;5.90;;
20000;SDS011;10161;41.188;-8.642;2022-07-17T00:29:23;8.03;;;5.83;;
20000;SDS011;10161;41.188;-8.642;2022-07-17T00:31:51;7.90;;;6.30;;
20000;SDS011;10161;41.188;-8.642;2022-07-17T00:34:17;9.60;;;5.90;;
20000;SDS011;10161;41.188;-8.642;2022-07-17T00:36:44;6.97;;;6.27;;
20000;SDS011;10161;41.188;-8.642;2022-07-17T00:39:13;7.00;;;6.30;;
20000;SDS011;10161;41.188;-8.642;2022-07-17T00:41:40;9.73;;;7.60;;
20000;SDS011;10161;41.188;-8.642;2022-07-17T00:44:07;10.57;;;8.17;;
20000;SDS011;10161;41.188;-8.642;2022-07-17T00:46:37;11.57;;;8.63;;
20000;SDS011;10161;41.188;-8.642;2022-07-17T00:49:06;10.07;;;8.20;;
20000;SDS011;10161;41.188;-8.642;2022-07-17T00:51:34;11.17;;;8.47;;
20000;SDS011;10161;41.188;-8.642;2022-07-17T00:54:01;13.23;;;8.30;;
20000;SDS011;10161;41.188;-8.642;2022-07-17T00:56:30;8.37;;;7.17;;
20000;SDS011;10161;41.188;-8.642;2022-07-17T00:58:58;11.00;;;8.83;;
20000;SDS011;10161;41.188;-8.642;2022-07-17T01:01:27;9.97;;;8.93;;
20000;SDS011;10161;41.188;-8.642;2022-07-17T01:03:54;10.43;;;9.20;;
20000;SDS011;10161;41.188;-8.642;2022-07-17T01:06:21;12.00;;;8.83;;
20000;SDS011;10161;41.188;-8.642;2022-07-17T01:08:48;15.03;;;8.00;;
20000;SDS011;10161;41.188;-8.642;2022-07-17T01:11:15;10.40;;;7.87;;
20000;SDS011;10161;41.188;-8.642;2022-07-17T01:13:44;7.73;;;7.03;;
20000;SDS011;10161;41.188;-8.642;2022-07-17T01:16:11;7.00;;;6.17;;
20000;SDS011;10161;41.188;-8.642;2022-07-17T01:18:38;8.50;;;6.30;;
20000;SDS011;10161;41.188;-8.642;2022-07-17T01:21:09;11.03;;;7.23;;
20000;SDS011;10161;41.188;-8.642;2022-07-17T01:23:35;9.17;;;6.60;;
20000;SDS011;10161;41.188;-8.642;2022-07-17T01:26:04;7.90;;;6.67;;
20000;SDS011;10161;41.188;-8.642;2022-07-17T01:28:31;8.83;;;7.50;;
20000;SDS011;10161;41.188;-8.642;2022-07-17T01:30:57;8.40;;;7.60;;
20000;SDS011;10161;41.188;-8.642;2022-07-17T01:33:29;9.27;;;7.30;;
20000;SDS011;10161;41.188;-8.642;2022-07-17T01:35:56;9.07;;;7.90;;
20000;SDS011;10161;41.188;-8.642;2022-07-17T01:38:26;9.47;;;8.23;;
20000;SDS011;10161;41.188;-8.642;2022-07-17T01:40:53;9.10;;;7.13;;
20000;SDS011;10161;41.188;-8.642;2022-07-17T01:43:20;8.50;;;6.80;;
20000;SDS011;10161;41.188;-8.642;2022-07-17T01:45:47;11.77;;;8.17;;
20000;SDS011;10161;41.188;-8.642;2022-07-17T01:48:23;8.47;;;7.30;;
20000;SDS011;10161;41.188;-8.642;2022-07-17T01:50:52;10.20;;;8.13;;
20000;SDS011;10161;41.188;-8.642;2022-07-17T01:53:19;10.93;;;7.63;;
20000;SDS011;10161;41.188;-8.642;2022-07-17T01:55:47;10.17;;;7.73;;
20000;SDS011;10161;41.188;-8.642;2022-07-17T01:58:14;7.03;;;6.43;;
20000;SDS011;10161;41.188;-8.642;2022-07-17T02:00:41;7.57;;;6.60;;
20000;SDS011;10161;41.188;-8.642;2022-07-17T02:03:08;7.87;;;7.17;;
20000;SDS011;10161;41.188;-8.642;2022-07-17T02:05:35;7.40;;;6.60;;
20000;SDS011;10161;41.188;-8.642;2022-07-17T02:08:02;8.43;;;7.40;;
20000;SDS011;10161;41.188;-8.642;2022-07-17T02:10:29;7.90;;;7.00;;
20000;SDS011;10161;41.188;-8.642;2022-07-17T02:13:00;8.20;;;7.40;;
20000;SDS011;10161;41.188;-8.642;2022-07-17T02:15:27;14.23;;;7.90;;
20000;SDS011;10161;41.188;-8.642;2022-07-17T02:17:54;6.83;;;6.17;;
20000;SDS011;10161;41.188;-8.642;2022-07-17T02:20:22;6.50;;;5.80;;
20000;SDS011;10161;41.188;-8.642;2022-07-17T02:22:49;6.90;;;6.20;;
20000;SDS011;10161;41.188;-8.642;2022-07-17T02:25:16;8.53;;;7.73;;
20000;SDS011;10161;41.188;-8.642;2022-07-17T02:27:43;9.40;;;8.40;;
20000;SDS011;10161;41.188;-8.642;2022-07-17T02:30:13;11.87;;;8.60;;
20000;SDS011;10161;41.188;-8.642;2022-07-17T02:32:41;10.30;;;8.13;;
20000;SDS011;10161;41.188;-8.642;2022-07-17T02:35:09;9.10;;;7.70;;
20000;SDS011;10161;41.188;-8.642;2022-07-17T02:37:37;7.50;;;6.70;;
20000;SDS011;10161;41.188;-8.642;2022-07-17T02:40:07;7.70;;;6.80;;
20000;SDS011;10161;41.188;-8.642;2022-07-17T02:42:34;8.47;;;7.33;;
20000;SDS011;10161;41.188;-8.642;2022-07-17T02:45:01;6.60;;;6.10;;
20000;SDS011;10161;41.188;-8.642;2022-07-17T02:53:59;8.03;;;6.53;;
20000;SDS011;10161;41.188;-8.642;2022-07-17T02:56:26;7.90;;;7.10;;
20000;SDS011;10161;41.188;-8.642;2022-07-17T02:58:52;8.80;;;7.10;;
20000;SDS011;10161;41.188;-8.642;2022-07-17T03:01:19;8.10;;;7.00;;
20000;SDS011;10161;41.188;-8.642;2022-07-17T03:03:46;9.80;;;7.00;;
20000;SDS011;10161;41.188;-8.642;2022-07-17T03:06:13;9.80;;;7.83;;
20000;SDS011;10161;41.188;-8.642;2022-07-17T03:08:40;7.83;;;7.03;;
20000;SDS011;10161;41.188;-8.642;2022-07-17T03:11:08;11.47;;;7.67;;
20000;SDS011;10161;41.188;-8.642;2022-07-17T03:13:35;9.83;;;7.93;;
20000;SDS011;10161;41.188;-8.642;2022-07-17T03:16:02;8.97;;;6.87;;
20000;SDS011;10161;41.188;-8.642;2022-07-17T03:18:30;8.87;;;7.33;;
20000;SDS011;10161;41.188;-8.642;2022-07-17T03:20:56;8.37;;;7.57;;
20000;SDS011;10161;41.188;-8.642;2022-07-17T03:23:23;10.20;;;8.60;;
20000;SDS011;10161;41.188;-8.642;2022-07-17T03:25:50;7.80;;;7.00;;
20000;SDS011;10161;41.188;-8.642;2022-07-17T03:28:19;9.80;;;8.27;;
20000;SDS011;10161;41.188;-8.642;2022-07-17T03:30:45;11.37;;;8.53;;
20000;SDS011;10161;41.188;-8.642;2022-07-17T03:33:12;16.80;;;9.10;;
20000;SDS011;10161;41.188;-8.642;2022-07-17T03:35:39;17.93;;;9.83;;
20000;SDS011;10161;41.188;-8.642;2022-07-17T03:38:06;23.13;;;11.80;;
20000;SDS011;10161;41.188;-8.642;2022-07-17T03:40:33;15.03;;;10.90;;
20000;SDS011;10161;41.188;-8.642;2022-07-17T03:43:00;16.50;;;11.53;;
20000;SDS011;10161;41.188;-8.642;2022-07-17T03:45:28;13.60;;;11.37;;
20000;SDS011;10161;41.188;-8.642;2022-07-17T03:47:55;25.47;;;17.33;;
20000;SDS011;10161;41.188;-8.642;2022-07-17T03:50:22;26.50;;;21.20;;
20000;SDS011;10161;41.188;-8.642;2022-07-17T03:56:11;29.30;;;26.23;;
20000;SDS011;10161;41.188;-8.642;2022-07-17T03:58:39;29.67;;;24.43;;
20000;SDS011;10161;41.188;-8.642;2022-07-17T04:01:07;31.73;;;28.23;;
20000;SDS011;10161;41.188;-8.642;2022-07-17T04:03:34;30.17;;;24.27;;
20000;SDS011;10161;41.188;-8.642;2022-07-17T04:06:01;27.80;;;23.33;;
20000;SDS011;10161;41.188;-8.642;2022-07-17T04:08:28;27.70;;;20.90;;
20000;SDS011;10161;41.188;-8.642;2022-07-17T04:10:55;26.33;;;18.40;;
20000;SDS011;10161;41.188;-8.642;2022-07-17T04:13:22;25.30;;;17.40;;
20000;SDS011;10161;41.188;-8.642;2022-07-17T04:15:49;22.87;;;18.30;;
20000;SDS011;10161;41.188;-8.642;2022-07-17T04:18:23;31.50;;;23.90;;
20000;SDS011;10161;41.188;-8.642;2022-07-17T04:20:51;24.00;;;17.87;;
20000;SDS011;10161;41.188;-8.642;2022-07-17T04:23:18;18.90;;;14.67;;
20000;SDS011;10161;41.188;-8.642;2022-07-17T04:25:45;17.07;;;13.30;;
20000;SDS011;10161;41.188;-8.642;2022-07-17T04:28:13;15.80;;;12.33;;
20000;SDS011;10161;41.188;-8.642;2022-07-17T04:30:40;18.10;;;13.53;;
20000;SDS011;10161;41.188;-8.642;2022-07-17T04:33:07;15.10;;;13.53;;
20000;SDS011;10161;41.188;-8.642;2022-07-17T04:35:35;15.73;;;12.73;;
20000;SDS011;10161;41.188;-8.642;2022-07-17T04:38:02;17.00;;;15.20;;
20000;SDS011;10161;41.188;-8.642;2022-07-17T04:40:30;17.57;;;13.53;;
20000;SDS011;10161;41.188;-8.642;2022-07-17T04:42:58;17.90;;;14.83;;
20000;SDS011;10161;41.188;-8.642;2022-07-17T04:45:25;16.33;;;13.90;;
20000;SDS011;10161;41.188;-8.642;2022-07-17T04:47:52;16.80;;;14.80;;
20000;SDS011;10161;41.188;-8.642;2022-07-17T04:50:19;19.90;;;14.20;;
20000;SDS011;10161;41.188;-8.642;2022-07-17T04:56:09;29.87;;;13.40;;
20000;SDS011;10161;41.188;-8.642;2022-07-17T04:58:36;17.33;;;12.57;;
20000;SDS011;10161;41.188;-8.642;2022-07-17T05:01:03;12.87;;;11.40;;
20000;SDS011;10161;41.188;-8.642;2022-07-17T05:03:30;18.60;;;12.50;;
20000;SDS011;10161;41.188;-8.642;2022-07-17T05:05:57;17.80;;;12.83;;
20000;SDS011;10161;41.188;-8.642;2022-07-17T05:08:24;28.57;;;14.30;;
20000;SDS011;10161;41.188;-8.642;2022-07-17T05:10:51;40.23;;;12.47;;
20000;SDS011;10161;41.188;-8.642;2022-07-17T05:13:19;15.90;;;11.67;;
20000;SDS011;10161;41.188;-8.642;2022-07-17T05:15:46;34.50;;;11.60;;
20000;SDS011;10161;41.188;-8.642;2022-07-17T05:18:14;18.13;;;12.70;;
20000;SDS011;10161;41.188;-8.642;2022-07-17T05:20:41;24.00;;;11.17;;
20000;SDS011;10161;41.188;-8.642;2022-07-17T05:23:08;22.60;;;12.17;;
20000;SDS011;10161;41.188;-8.642;2022-07-17T05:25:35;15.33;;;10.10;;
20000;SDS011;10161;41.188;-8.642;2022-07-17T05:31:05;19.17;;;8.63;;
20000;SDS011;10161;41.188;-8.642;2022-07-17T05:33:32;21.73;;;8.27;;
20000;SDS011;10161;41.188;-8.642;2022-07-17T05:35:59;15.70;;;6.67;;
20000;SDS011;10161;41.188;-8.642;2022-07-17T05:38:25;27.23;;;7.13;;
20000;SDS011;10161;41.188;-8.642;2022-07-17T05:40:52;52.57;;;6.90;;
20000;SDS011;10161;41.188;-8.642;2022-07-17T05:43:19;78.60;;;6.60;;
20000;SDS011;10161;41.188;-8.642;2022-07-17T05:45:56;37.57;;;6.90;;
20000;SDS011;10161;41.188;-8.642;2022-07-17T05:48:23;22.23;;;5.67;;
20000;SDS011;10161;41.188;-8.642;2022-07-17T05:50:50;60.97;;;6.20;;
20000;SDS011;10161;41.188;-8.642;2022-07-17T05:53:19;46.87;;;5.73;;
20000;SDS011;10161;41.188;-8.642;2022-07-17T05:55:46;6.20;;;5.60;;
20000;SDS011;10161;41.188;-8.642;2022-07-17T05:58:12;10.77;;;5.20;;
20000;SDS011;10161;41.188;-8.642;2022-07-17T06:04:03;7.53;;;6.83;;
20000;SDS011;10161;41.188;-8.642;2022-07-17T06:06:30;16.40;;;8.30;;
20000;SDS011;10161;41.188;-8.642;2022-07-17T06:08:57;14.87;;;8.10;;
20000;SDS011;10161;41.188;-8.642;2022-07-17T06:11:23;11.87;;;7.97;;
20000;SDS011;10161;41.188;-8.642;2022-07-17T06:13:50;8.73;;;7.83;;
20000;SDS011;10161;41.188;-8.642;2022-07-17T06:16:17;12.07;;;6.60;;
20000;SDS011;10161;41.188;-8.642;2022-07-17T06:18:44;12.53;;;7.07;;
20000;SDS011;10161;41.188;-8.642;2022-07-17T06:21:12;10.40;;;8.10;;
20000;SDS011;10161;41.188;-8.642;2022-07-17T06:23:39;7.70;;;6.27;;
20000;SDS011;10161;41.188;-8.642;2022-07-17T06:26:07;11.60;;;5.47;;
20000;SDS011;10161;41.188;-8.642;2022-07-17T06:28:34;6.17;;;5.57;;
20000;SDS011;10161;41.188;-8.642;2022-07-17T06:31:01;6.20;;;5.60;;
20000;SDS011;10161;41.188;-8.642;2022-07-17T06:33:28;10.47;;;6.30;;
20000;SDS011;10161;41.188;-8.642;2022-07-17T06:35:55;8.47;;;6.70;;
20000;SDS011;10161;41.188;-8.642;2022-07-17T06:38:23;14.70;;;7.20;;
20000;SDS011;10161;41.188;-8.642;2022-07-17T06:40:50;9.70;;;8.20;;
20000;SDS011;10161;41.188;-8.642;2022-07-17T06:43:17;9.30;;;7.60;;
20000;SDS011;10161;41.188;-8.642;2022-07-17T06:45:45;7.67;;;6.23;;
20000;SDS011;10161;41.188;-8.642;2022-07-17T06:48:12;7.37;;;6.70;;
20000;SDS011;10161;41.188;-8.642;2022-07-17T06:50:39;8.80;;;7.90;;
20000;SDS011;10161;41.188;-8.642;2022-07-17T06:53:07;8.53;;;7.50;;
20000;SDS011;10161;41.188;-8.642;2022-07-17T06:55:35;7.60;;;6.90;;
20000;SDS011;10161;41.188;-8.642;2022-07-17T06:58:02;8.80;;;6.90;;
20000;SDS011;10161;41.188;-8.642;2022-07-17T07:00:29;9.77;;;7.43;;
20000;SDS011;10161;41.188;-8.642;2022-07-17T07:02:56;9.53;;;7.67;;
20000;SDS011;10161;41.188;-8.642;2022-07-17T07:05:23;7.50;;;6.83;;
20000;SDS011;10161;41.188;-8.642;2022-07-17T07:07:51;7.20;;;6.50;;
20000;SDS011;10161;41.188;-8.642;2022-07-17T07:10:18;7.50;;;6.80;;
20000;SDS011;10161;41.188;-8.642;2022-07-17T07:12:47;9.67;;;8.40;;
20000;SDS011;10161;41.188;-8.642;2022-07-17T07:15:14;8.30;;;7.50;;
20000;SDS011;10161;41.188;-8.642;2022-07-17T07:17:41;8.80;;;7.90;;
20000;SDS011;10161;41.188;-8.642;2022-07-17T07:20:08;12.33;;;9.10;;
20000;SDS011;10161;41.188;-8.642;2022-07-17T07:22:36;11.67;;;8.90;;
20000;SDS011;10161;41.188;-8.642;2022-07-17T07:27:54;10.70;;;9.70;;
20000;SDS011;10161;41.188;-8.642;2022-07-17T07:30:21;11.07;;;9.70;;
20000;SDS011;10161;41.188;-8.642;2022-07-17T07:32:48;9.50;;;8.60;;
20000;SDS011;10161;41.188;-8.642;2022-07-17T07:35:15;10.60;;;9.60;;
20000;SDS011;10161;41.188;-8.642;2022-07-17T07:37:42;10.80;;;9.70;;
20000;SDS011;10161;41.188;-8.642;2022-07-17T07:40:10;12.67;;;10.93;;
20000;SDS011;10161;41.188;-8.642;2022-07-17T07:42:38;11.67;;;10.47;;
20000;SDS011;10161;41.188;-8.642;2022-07-17T07:45:07;13.20;;;11.57;;
20000;SDS011;10161;41.188;-8.642;2022-07-17T07:47:40;13.73;;;10.80;;
20000;SDS011;10161;41.188;-8.642;2022-07-17T07:50:08;12.40;;;11.20;;
20000;SDS011;10161;41.188;-8.642;2022-07-17T07:52:36;13.20;;;11.80;;
20000;SDS011;10161;41.188;-8.642;2022-07-17T07:55:04;13.13;;;11.87;;
20000;SDS011;10161;41.188;-8.642;2022-07-17T07:57:49;12.60;;;10.93;;
20000;SDS011;10161;41.188;-8.642;2022-07-17T08:00:17;14.90;;;11.23;;
20000;SDS011;10161;41.188;-8.642;2022-07-17T08:02:44;12.80;;;10.93;;
20000;SDS011;10161;41.188;-8.642;2022-07-17T08:05:11;13.40;;;11.23;;
20000;SDS011;10161;41.188;-8.642;2022-07-17T08:07:38;13.73;;;11.30;;
20000;SDS011;10161;41.188;-8.642;2022-07-17T08:10:05;15.00;;;11.53;;
20000;SDS011;10161;41.188;-8.642;2022-07-17T08:12:33;12.83;;;11.33;;
20000;SDS011;10161;41.188;-8.642;2022-07-17T08:15:00;12.00;;;10.43;;
20000;SDS011;10161;41.188;-8.642;2022-07-17T08:17:28;14.20;;;11.10;;
20000;SDS011;10161;41.188;-8.642;2022-07-17T08:19:55;15.90;;;12.47;;
20000;SDS011;10161;41.188;-8.642;2022-07-17T08:22:22;15.93;;;12.80;;
20000;SDS011;10161;41.188;-8.642;2022-07-17T08:24:49;15.33;;;12.47;;
20000;SDS011;10161;41.188;-8.642;2022-07-17T08:27:16;15.27;;;13.67;;
20000;SDS011;10161;41.188;-8.642;2022-07-17T08:29:43;15.20;;;12.77;;
20000;SDS011;10161;41.188;-8.642;2022-07-17T08:32:10;19.53;;;14.97;;
20000;SDS011;10161;41.188;-8.642;2022-07-17T08:34:46;16.43;;;13.90;;
20000;SDS011;10161;41.188;-8.642;2022-07-17T08:37:13;17.00;;;15.10;;
20000;SDS011;10161;41.188;-8.642;2022-07-17T08:39:39;18.23;;;15.70;;
20000;SDS011;10161;41.188;-8.642;2022-07-17T08:42:06;14.50;;;12.90;;
20000;SDS011;10161;41.188;-8.642;2022-07-17T08:44:38;16.80;;;15.00;;
20000;SDS011;10161;41.188;-8.642;2022-07-17T08:47:05;19.63;;;14.73;;
20000;SDS011;10161;41.188;-8.642;2022-07-17T08:49:33;18.33;;;15.00;;
20000;SDS011;10161;41.188;-8.642;2022-07-17T08:52:04;20.07;;;16.27;;
20000;SDS011;10161;41.188;-8.642;2022-07-17T08:54:31;23.07;;;15.80;;
20000;SDS011;10161;41.188;-8.642;2022-07-17T08:56:58;17.47;;;14.20;;
20000;SDS011;10161;41.188;-8.642;2022-07-17T08:59:25;17.63;;;14.33;;
20000;SDS011;10161;41.188;-8.642;2022-07-17T09:01:52;16.30;;;14.57;;
20000;SDS011;10161;41.188;-8.642;2022-07-17T09:04:22;15.83;;;14.10;;
20000;SDS011;10161;41.188;-8.642;2022-07-17T09:06:57;14.43;;;12.70;;
20000;SDS011;10161;41.188;-8.642;2022-07-17T09:09:28;23.17;;;16.20;;
20000;SDS011;10161;41.188;-8.642;2022-07-17T09:11:55;18.60;;;16.10;;
20000;SDS011;10161;41.188;-8.642;2022-07-17T09:14:24;14.67;;;13.10;;
20000;SDS011;10161;41.188;-8.642;2022-07-17T09:16:51;15.63;;;13.20;;
20000;SDS011;10161;41.188;-8.642;2022-07-17T09:19:26;18.57;;;15.60;;
20000;SDS011;10161;41.188;-8.642;2022-07-17T09:22:03;19.03;;;15.67;;
20000;SDS011;10161;41.188;-8.642;2022-07-17T09:24:46;14.87;;;13.30;;
20000;SDS011;10161;41.188;-8.642;2022-07-17T09:27:27;17.47;;;15.57;;
20000;SDS011;10161;41.188;-8.642;2022-07-17T09:29:57;14.63;;;13.00;;
20000;SDS011;10161;41.188;-8.642;2022-07-17T09:32:27;20.00;;;16.37;;
20000;SDS011;10161;41.188;-8.642;2022-07-17T09:34:56;20.00;;;17.03;;
20000;SDS011;10161;41.188;-8.642;2022-07-17T09:37:24;16.60;;;14.63;;
20000;SDS011;10161;41.188;-8.642;2022-07-17T09:39:53;18.03;;;15.70;;
20000;SDS011;10161;41.188;-8.642;2022-07-17T09:42:24;16.40;;;14.80;;
20000;SDS011;10161;41.188;-8.642;2022-07-17T09:44:57;17.10;;;15.30;;
20000;SDS011;10161;41.188;-8.642;2022-07-17T09:47:24;16.60;;;13.17;;
20000;SDS011;10161;41.188;-8.642;2022-07-17T09:49:52;12.57;;;11.07;;
20000;SDS011;10161;41.188;-8.642;2022-07-17T09:52:19;12.93;;;11.80;;
20000;SDS011;10161;41.188;-8.642;2022-07-17T09:54:47;12.60;;;11.40;;
20000;SDS011;10161;41.188;-8.642;2022-07-17T09:57:19;12.63;;;11.33;;
20000;SDS011;10161;41.188;-8.642;2022-07-17T09:59:47;13.80;;;12.40;;
20000;SDS011;10161;41.188;-8.642;2022-07-17T10:02:15;13.27;;;11.90;;
20000;SDS011;10161;41.188;-8.642;2022-07-17T10:04:44;13.70;;;12.40;;
20000;SDS011;10161;41.188;-8.642;2022-07-17T10:07:12;11.00;;;9.87;;
20000;SDS011;10161;41.188;-8.642;2022-07-17T10:09:39;13.73;;;12.20;;
20000;SDS011;10161;41.188;-8.642;2022-07-17T10:12:08;11.73;;;10.53;;
20000;SDS011;10161;41.188;-8.642;2022-07-17T10:14:37;14.00;;;12.10;;
20000;SDS011;10161;41.188;-8.642;2022-07-17T10:17:08;13.73;;;12.23;;
20000;SDS011;10161;41.188;-8.642;2022-07-17T10:19:43;12.73;;;11.53;;
20000;SDS011;10161;41.188;-8.642;2022-07-17T10:22:11;13.90;;;12.60;;
20000;SDS011;10161;41.188;-8.642;2022-07-17T10:24:49;13.10;;;11.80;;
20000;SDS011;10161;41.188;-8.642;2022-07-17T10:27:18;14.90;;;12.63;;
20000;SDS011;10161;41.188;-8.642;2022-07-17T10:29:58;13.33;;;11.97;;
20000;SDS011;10161;41.188;-8.642;2022-07-17T10:32:25;14.50;;;12.20;;
20000;SDS011;10161;41.188;-8.642;2022-07-17T10:34:57;15.73;;;12.70;;
20000;SDS011;10161;41.188;-8.642;2022-07-17T10:37:27;14.60;;;13.10;;
20000;SDS011;10161;41.188;-8.642;2022-07-17T10:39:58;14.50;;;12.33;;
20000;SDS011;10161;41.188;-8.642;2022-07-17T10:42:38;13.53;;;11.90;;
20000;SDS011;10161;41.188;-8.642;2022-07-17T10:45:10;13.60;;;12.07;;
20000;SDS011;10161;41.188;-8.642;2022-07-17T10:47:43;14.60;;;13.10;;
20000;SDS011;10161;41.188;-8.642;2022-07-17T10:50:11;13.23;;;11.87;;
20000;SDS011;10161;41.188;-8.642;2022-07-17T10:52:39;12.97;;;11.63;;
20000;SDS011;10161;41.188;-8.642;2022-07-17T10:55:17;14.50;;;12.73;;
20000;SDS011;10161;41.188;-8.642;2022-07-17T10:57:48;15.87;;;13.73;;
20000;SDS011;10161;41.188;-8.642;2022-07-17T11:00:17;16.33;;;14.73;;
20000;SDS011;10161;41.188;-8.642;2022-07-17T11:02:46;13.77;;;12.37;;
20000;SDS011;10161;41.188;-8.642;2022-07-17T11:05:13;15.10;;;11.93;;
20000;SDS011;10161;41.188;-8.642;2022-07-17T11:07:48;11.60;;;10.40;;
20000;SDS011;10161;41.188;-8.642;2022-07-17T11:10:36;15.37;;;13.03;;
20000;SDS011;10161;41.188;-8.642;2022-07-17T11:13:09;12.87;;;11.60;;
20000;SDS011;10161;41.188;-8.642;2022-07-17T11:15:39;19.73;;;12.00;;
20000;SDS011;10161;41.188;-8.642;2022-07-17T11:18:11;12.20;;;10.90;;
20000;SDS011;10161;41.188;-8.642;2022-07-17T11:20:46;12.03;;;10.80;;
20000;SDS011;10161;41.188;-8.642;2022-07-17T11:23:17;12.70;;;11.40;;
20000;SDS011;10161;41.188;-8.642;2022-07-17T11:26:01;11.43;;;10.30;;
20000;SDS011;10161;41.188;-8.642;2022-07-17T11:28:33;11.03;;;10.00;;
20000;SDS011;10161;41.188;-8.642;2022-07-17T11:31:03;11.50;;;10.40;;
20000;SDS011;10161;41.188;-8.642;2022-07-17T11:33:32;11.27;;;10.17;;
20000;SDS011;10161;41.188;-8.642;2022-07-17T11:35:59;12.93;;;11.50;;
20000;SDS011;10161;41.188;-8.642;2022-07-17T11:38:26;14.00;;;11.80;;
20000;SDS011;10161;41.188;-8.642;2022-07-17T11:40:54;12.03;;;10.70;;
20000;SDS011;10161;41.188;-8.642;2022-07-17T11:43:23;13.70;;;11.00;;
20000;SDS011;10161;41.188;-8.642;2022-07-17T11:45:50;13.97;;;11.00;;
20000;SDS011;10161;41.188;-8.642;2022-07-17T11:48:18;14.80;;;11.60;;
20000;SDS011;10161;41.188;-8.642;2022-07-17T11:50:55;12.67;;;11.27;;
20000;SDS011;10161;41.188;-8.642;2022-07-17T11:53:32;15.90;;;14.10;;
20000;SDS011;10161;41.188;-8.642;2022-07-17T11:56:00;17.90;;;15.90;;
20000;SDS011;10161;41.188;-8.642;2022-07-17T11:58:28;19.53;;;15.23;;
20000;SDS011;10161;41.188;-8.642;2022-07-17T12:01:06;21.67;;;17.03;;
20000;SDS011;10161;41.188;-8.642;2022-07-17T12:03:35;22.20;;;19.27;;
20000;SDS011;10161;41.188;-8.642;2022-07-17T12:06:01;27.00;;;21.30;;
20000;SDS011;10161;41.188;-8.642;2022-07-17T12:08:28;25.30;;;22.03;;
20000;SDS011;10161;41.188;-8.642;2022-07-17T12:11:00;30.37;;;23.83;;
20000;SDS011;10161;41.188;-8.642;2022-07-17T12:13:41;30.53;;;23.40;;
20000;SDS011;10161;41.188;-8.642;2022-07-17T12:16:18;25.57;;;22.83;;
20000;SDS011;10161;41.188;-8.642;2022-07-17T12:19:01;23.53;;;20.97;;
20000;SDS011;10161;41.188;-8.642;2022-07-17T12:21:34;21.70;;;19.40;;
20000;SDS011;10161;41.188;-8.642;2022-07-17T12:24:17;20.60;;;18.47;;
20000;SDS011;10161;41.188;-8.642;2022-07-17T12:26:45;25.40;;;19.50;;
20000;SDS011;10161;41.188;-8.642;2022-07-17T12:29:12;21.37;;;16.80;;
20000;SDS011;10161;41.188;-8.642;2022-07-17T12:31:39;21.07;;;16.90;;
20000;SDS011;10161;41.188;-8.642;2022-07-17T12:34:07;19.73;;;15.27;;
20000;SDS011;10161;41.188;-8.642;2022-07-17T12:36:34;18.40;;;15.10;;
20000;SDS011;10161;41.188;-8.642;2022-07-17T12:39:01;16.80;;;13.33;;
20000;SDS011;10161;41.188;-8.642;2022-07-17T12:41:29;18.07;;;14.07;;
20000;SDS011;10161;41.188;-8.642;2022-07-17T12:43:56;17.37;;;14.07;;
20000;SDS011;10161;41.188;-8.642;2022-07-17T12:46:23;14.97;;;12.30;;
20000;SDS011;10161;41.188;-8.642;2022-07-17T12:48:51;21.03;;;13.70;;
20000;SDS011;10161;41.188;-8.642;2022-07-17T12:51:20;12.50;;;11.20;;
20000;SDS011;10161;41.188;-8.642;2022-07-17T12:53:47;15.63;;;12.27;;
20000;SDS011;10161;41.188;-8.642;2022-07-17T12:56:14;12.30;;;10.60;;
20000;SDS011;10161;41.188;-8.642;2022-07-17T12:58:41;11.70;;;10.00;;
20000;SDS011;10161;41.188;-8.642;2022-07-17T13:01:09;11.63;;;10.40;;
20000;SDS011;10161;41.188;-8.642;2022-07-17T13:03:36;11.70;;;10.10;;
20000;SDS011;10161;41.188;-8.642;2022-07-17T13:06:05;11.50;;;10.20;;
20000;SDS011;10161;41.188;-8.642;2022-07-17T13:08:40;14.13;;;10.43;;
20000;SDS011;10161;41.188;-8.642;2022-07-17T13:11:07;14.90;;;11.60;;
20000;SDS011;10161;41.188;-8.642;2022-07-17T13:13:34;12.47;;;11.07;;
20000;SDS011;10161;41.188;-8.642;2022-07-17T13:16:02;12.87;;;9.40;;
20000;SDS011;10161;41.188;-8.642;2022-07-17T13:18:30;13.33;;;9.00;;
20000;SDS011;10161;41.188;-8.642;2022-07-17T13:20:58;12.23;;;10.03;;
20000;SDS011;10161;41.188;-8.642;2022-07-17T13:23:25;14.80;;;9.33;;
20000;SDS011;10161;41.188;-8.642;2022-07-17T13:25:54;13.50;;;10.00;;
20000;SDS011;10161;41.188;-8.642;2022-07-17T13:28:22;12.17;;;10.00;;
20000;SDS011;10161;41.188;-8.642;2022-07-17T13:30:49;9.93;;;8.93;;
20000;SDS011;10161;41.188;-8.642;2022-07-17T13:33:17;13.37;;;10.17;;
20000;SDS011;10161;41.188;-8.642;2022-07-17T13:35:44;12.83;;;10.30;;
20000;SDS011;10161;41.188;-8.642;2022-07-17T13:38:11;10.37;;;7.90;;
20000;SDS011;10161;41.188;-8.642;2022-07-17T13:40:38;11.60;;;8.80;;
20000;SDS011;10161;41.188;-8.642;2022-07-17T13:43:08;13.10;;;9.60;;
20000;SDS011;10161;41.188;-8.642;2022-07-17T13:45:35;10.90;;;9.00;;
20000;SDS011;10161;41.188;-8.642;2022-07-17T13:48:03;11.87;;;8.07;;
20000;SDS011;10161;41.188;-8.642;2022-07-17T13:50:31;13.13;;;7.97;;
20000;SDS011;10161;41.188;-8.642;2022-07-17T13:52:58;9.33;;;7.40;;
20000;SDS011;10161;41.188;-8.642;2022-07-17T13:55:26;11.03;;;8.27;;
20000;SDS011;10161;41.188;-8.642;2022-07-17T13:57:53;9.23;;;8.00;;
20000;SDS011;10161;41.188;-8.642;2022-07-17T14:00:22;9.07;;;7.50;;
20000;SDS011;10161;41.188;-8.642;2022-07-17T14:02:49;8.57;;;7.17;;
20000;SDS011;10161;41.188;-8.642;2022-07-17T14:05:16;10.40;;;8.07;;
20000;SDS011;10161;41.188;-8.642;2022-07-17T14:07:43;13.27;;;8.60;;
20000;SDS011;10161;41.188;-8.642;2022-07-17T14:10:10;10.03;;;7.83;;
20000;SDS011;10161;41.188;-8.642;2022-07-17T14:12:37;9.73;;;7.27;;
20000;SDS011;10161;41.188;-8.642;2022-07-17T14:15:05;10.57;;;7.37;;
20000;SDS011;10161;41.188;-8.642;2022-07-17T14:17:38;8.03;;;7.23;;
20000;SDS011;10161;41.188;-8.642;2022-07-17T14:20:05;9.93;;;7.80;;
20000;SDS011;10161;41.188;-8.642;2022-07-17T14:22:33;10.47;;;6.53;;
20000;SDS011;10161;41.188;-8.642;2022-07-17T14:25:05;10.63;;;7.10;;
20000;SDS011;10161;41.188;-8.642;2022-07-17T14:27:32;10.60;;;7.17;;
20000;SDS011;10161;41.188;-8.642;2022-07-17T14:30:00;9.27;;;7.40;;
20000;SDS011;10161;41.188;-8.642;2022-07-17T14:32:27;12.00;;;7.87;;
20000;SDS011;10161;41.188;-8.642;2022-07-17T14:34:55;10.73;;;7.57;;
20000;SDS011;10161;41.188;-8.642;2022-07-17T14:37:22;12.57;;;7.97;;
20000;SDS011;10161;41.188;-8.642;2022-07-17T14:39:51;12.20;;;7.77;;
20000;SDS011;10161;41.188;-8.642;2022-07-17T14:42:18;11.50;;;8.57;;
20000;SDS011;10161;41.188;-8.642;2022-07-17T14:44:45;13.40;;;7.07;;
20000;SDS011;10161;41.188;-8.642;2022-07-17T14:47:13;11.80;;;6.73;;
20000;SDS011;10161;41.188;-8.642;2022-07-17T14:49:43;13.50;;;7.73;;